createdAt,value
2023-01-21T00:03:39.032Z,16.57
2023-01-21T00:07:56.523Z,16.63
2023-01-21T00:12:15.471Z,16.69
2023-01-21T00:16:32.963Z,16.76
2023-01-21T00:20:50.076Z,16.79
2023-01-21T00:25:08.127Z,16.78
2023-01-21T00:29:26.660Z,16.79
2023-01-21T00:33:44.152Z,16.92
2023-01-21T00:38:01.877Z,16.86
2023-01-21T00:42:19.587Z,16.77
2023-01-21T00:46:37.244Z,16.78
2023-01-21T00:50:56.368Z,15.61
2023-01-21T00:55:13.884Z,14.95
2023-01-21T00:59:31.030Z,16.14
2023-01-21T01:03:50.389Z,16.55
2023-01-21T01:08:08.006Z,16.71
2023-01-21T01:12:25.595Z,16.71
2023-01-21T01:16:43.100Z,16.85
2023-01-21T01:21:02.300Z,16.73
2023-01-21T01:25:19.920Z,16.80
2023-01-21T01:29:37.410Z,16.82
2023-01-21T01:33:56.555Z,16.80
2023-01-21T01:38:16.174Z,16.79
2023-01-21T01:42:34.224Z,16.76
2023-01-21T01:46:51.842Z,16.03
2023-01-21T01:51:09.888Z,14.99
2023-01-21T01:55:34.160Z,15.96
2023-01-21T01:59:51.949Z,16.53
2023-01-21T02:04:17.312Z,16.63
2023-01-21T02:08:36.422Z,16.72
2023-01-21T02:12:54.581Z,16.76
2023-01-21T02:17:39.262Z,16.71
2023-01-21T02:22:05.335Z,16.79
2023-01-21T02:27:02.237Z,16.77
2023-01-21T02:32:01.562Z,16.71
2023-01-21T02:36:43.864Z,15.96
2023-01-21T02:41:19.008Z,15.08
2023-01-21T02:46:13.114Z,16.24
2023-01-21T02:50:38.809Z,16.52
2023-01-21T02:55:02.158Z,16.56
2023-01-21T02:59:19.953Z,16.62
2023-01-21T03:03:41.586Z,16.76
2023-01-21T03:08:18.438Z,16.77
2023-01-21T03:12:51.182Z,16.73
2023-01-21T03:17:38.336Z,16.59
2023-01-21T03:21:59.241Z,15.26
2023-01-21T03:26:22.579Z,15.65
2023-01-21T03:30:43.732Z,16.39
2023-01-21T03:35:04.232Z,16.65
2023-01-21T03:39:57.320Z,16.61
2023-01-21T03:44:14.938Z,16.79
2023-01-21T03:49:02.389Z,16.81
2023-01-21T03:53:20.220Z,16.72
2023-01-21T03:57:38.079Z,16.82
2023-01-21T04:01:55.719Z,16.78
2023-01-21T04:06:16.596Z,16.06
2023-01-21T04:10:34.227Z,14.97
2023-01-21T04:14:51.659Z,15.93
2023-01-21T04:19:09.534Z,16.44
2023-01-21T04:23:27.033Z,16.61
2023-01-21T04:27:44.652Z,16.69
2023-01-21T04:32:02.343Z,16.73
2023-01-21T04:36:19.522Z,16.75
2023-01-21T04:40:37.128Z,16.71
2023-01-21T04:44:54.746Z,16.78
2023-01-21T04:49:12.473Z,16.85
2023-01-21T04:53:30.105Z,16.76
2023-01-21T04:57:47.792Z,16.69
2023-01-21T05:02:05.515Z,16.85
2023-01-21T05:06:23.054Z,16.76
2023-01-21T05:10:41.689Z,16.76
2023-01-21T05:14:59.223Z,16.80
2023-01-21T05:19:16.753Z,16.78
2023-01-21T05:23:34.382Z,16.75
2023-01-21T05:27:53.565Z,15.31
2023-01-21T05:32:11.379Z,14.79
2023-01-21T05:36:28.945Z,15.95
2023-01-21T05:40:46.422Z,16.40
2023-01-21T05:45:04.426Z,16.52
2023-01-21T05:49:21.998Z,16.55
2023-01-21T05:53:39.792Z,16.55
2023-01-21T05:57:57.304Z,16.16
2023-01-21T06:02:15.240Z,15.75
2023-01-21T06:06:33.047Z,16.00
2023-01-21T06:10:50.573Z,15.73
2023-01-21T06:15:08.683Z,14.86
2023-01-21T06:19:26.285Z,15.68
2023-01-21T06:23:44.003Z,15.79
2023-01-21T06:28:01.545Z,15.74
2023-01-21T06:32:19.166Z,15.71
2023-01-21T06:36:36.619Z,15.85
2023-01-21T06:40:54.270Z,15.95
2023-01-21T06:45:11.908Z,15.87
2023-01-21T06:49:29.712Z,14.99
2023-01-21T06:53:47.172Z,15.86
2023-01-21T06:58:04.737Z,15.88
2023-01-21T07:02:22.198Z,15.90
2023-01-21T07:06:40.087Z,15.85
2023-01-21T07:10:57.594Z,15.91
2023-01-21T07:15:16.221Z,16.09
2023-01-21T07:19:34.142Z,15.84
2023-01-21T07:23:55.753Z,15.25
2023-01-21T07:28:12.883Z,16.59
2023-01-21T07:32:30.514Z,16.88
2023-01-21T07:36:47.983Z,16.98
2023-01-21T07:41:05.700Z,17.14
2023-01-21T07:45:24.268Z,17.34
2023-01-21T07:49:42.229Z,17.28
2023-01-21T07:53:59.818Z,17.14
2023-01-21T07:58:17.442Z,17.27
2023-01-21T08:02:34.503Z,17.28
2023-01-21T08:06:57.126Z,17.35
2023-01-21T08:11:14.426Z,17.41
2023-01-21T08:15:32.032Z,17.37
2023-01-21T08:19:49.668Z,17.38
2023-01-21T08:24:07.438Z,17.43
2023-01-21T08:28:25.274Z,17.46
2023-01-21T08:32:42.804Z,17.46
2023-01-21T08:37:00.400Z,17.28
2023-01-21T08:41:18.043Z,15.88
2023-01-21T08:45:35.532Z,15.83
2023-01-21T08:49:53.449Z,16.98
2023-01-21T08:54:11.153Z,17.28
2023-01-21T08:58:30.935Z,17.24
2023-01-21T09:02:50.693Z,17.40
2023-01-21T09:07:09.175Z,17.43
2023-01-21T09:11:29.257Z,17.55
2023-01-21T09:15:47.329Z,17.50
2023-01-21T09:20:05.335Z,17.51
2023-01-21T09:24:23.851Z,17.53
2023-01-21T09:28:44.119Z,17.44
2023-01-21T09:33:01.567Z,17.57
2023-01-21T09:37:19.115Z,17.49
2023-01-21T09:41:50.846Z,17.63
2023-01-21T09:46:32.320Z,17.61
2023-01-21T09:50:52.017Z,17.61
2023-01-21T09:55:47.175Z,17.54
2023-01-21T10:00:18.296Z,17.55
2023-01-21T10:04:48.218Z,17.58
2023-01-21T10:09:45.687Z,16.15
2023-01-21T10:14:44.918Z,16.15
2023-01-21T10:19:04.583Z,17.15
2023-01-21T10:23:49.775Z,17.43
2023-01-21T10:28:30.620Z,17.49
2023-01-21T10:32:52.180Z,17.53
2023-01-21T10:37:46.209Z,17.62
2023-01-21T10:42:31.777Z,17.59
2023-01-21T10:47:05.625Z,17.62
2023-01-21T10:52:18.521Z,17.59
2023-01-21T10:56:59.525Z,17.66
2023-01-21T11:01:34.752Z,17.58
2023-01-21T11:05:52.424Z,17.67
2023-01-21T11:10:22.695Z,17.71
2023-01-21T11:14:40.200Z,17.66
2023-01-21T11:18:58.590Z,17.75
2023-01-21T11:23:54.628Z,17.71
2023-01-21T11:28:27.375Z,16.60
2023-01-21T11:32:44.874Z,15.55
2023-01-21T11:37:08.287Z,15.27
2023-01-21T11:41:25.984Z,14.07
2023-01-21T11:45:43.902Z,13.52
2023-01-21T11:50:16.637Z,14.96
2023-01-21T11:54:39.739Z,14.51
2023-01-21T11:58:57.541Z,16.47
2023-01-21T12:03:18.903Z,17.28
2023-01-21T12:07:40.807Z,17.80
2023-01-21T12:12:27.032Z,17.92
2023-01-21T12:17:01.274Z,16.90
2023-01-21T12:21:43.565Z,15.74
2023-01-21T12:26:14.434Z,16.82
2023-01-21T12:30:53.638Z,17.25
2023-01-21T12:35:35.711Z,17.28
2023-01-21T12:39:56.728Z,17.50
2023-01-21T12:44:14.112Z,17.44
2023-01-21T12:49:12.724Z,17.66
2023-01-21T12:53:44.792Z,17.32
2023-01-21T12:58:14.786Z,16.03
2023-01-21T13:03:10.536Z,17.33
2023-01-21T13:07:53.816Z,17.75
2023-01-21T13:12:20.517Z,17.63
2023-01-21T13:16:52.890Z,17.65
2023-01-21T13:21:35.061Z,17.63
2023-01-21T13:26:04.304Z,17.89
2023-01-21T13:31:01.492Z,18.16
2023-01-21T13:35:31.915Z,16.24
2023-01-21T13:40:12.808Z,17.04
2023-01-21T13:45:05.603Z,17.41
2023-01-21T13:49:59.636Z,16.99
2023-01-21T13:54:38.824Z,16.90
2023-01-21T13:59:14.160Z,16.75
2023-01-21T14:04:03.266Z,16.71
2023-01-21T14:08:43.536Z,16.74
2023-01-21T14:13:07.092Z,16.73
2023-01-21T14:18:03.480Z,16.27
2023-01-21T14:23:10.549Z,16.37
2023-01-21T14:27:56.643Z,17.32
2023-01-21T14:32:40.169Z,17.44
2023-01-21T14:37:06.515Z,17.48
2023-01-21T14:41:24.048Z,17.54
2023-01-21T14:45:56.104Z,17.49
2023-01-21T14:50:52.249Z,17.48
2023-01-21T14:55:31.333Z,17.42
2023-01-21T14:59:50.800Z,17.41
2023-01-21T15:04:24.524Z,17.42
2023-01-21T15:08:47.543Z,17.35
2023-01-21T15:13:25.861Z,17.38
2023-01-21T15:18:21.012Z,17.37
2023-01-21T15:22:41.397Z,17.34
2023-01-21T15:27:26.131Z,17.34
2023-01-21T15:31:45.059Z,16.19
2023-01-21T15:36:04.252Z,15.36
2023-01-21T15:40:52.931Z,16.41
2023-01-21T15:45:42.326Z,16.96
2023-01-21T15:50:21.221Z,17.08
2023-01-21T15:55:08.856Z,17.18
2023-01-21T15:59:46.401Z,17.28
2023-01-21T16:04:19.553Z,17.21
2023-01-21T16:09:03.387Z,17.16
2023-01-21T16:13:43.537Z,17.29
2023-01-21T16:18:46.786Z,17.25
2023-01-21T16:23:07.481Z,17.21
2023-01-21T16:27:28.668Z,17.07
2023-01-21T16:31:59.758Z,15.56
2023-01-21T16:36:21.275Z,16.06
2023-01-21T16:40:38.984Z,16.77
2023-01-21T16:44:58.635Z,16.92
2023-01-21T16:49:18.064Z,17.08
2023-01-21T16:53:35.568Z,17.08
2023-01-21T16:57:56.719Z,17.10
2023-01-21T17:02:34.198Z,17.16
2023-01-21T17:06:54.112Z,17.15
2023-01-21T17:11:12.786Z,17.15
2023-01-21T17:15:49.146Z,17.17
2023-01-21T17:20:07.429Z,17.14
2023-01-21T17:24:38.405Z,15.61
2023-01-21T17:29:26.542Z,15.96
2023-01-21T17:33:44.144Z,16.68
2023-01-21T17:38:04.723Z,16.90
2023-01-21T17:42:30.527Z,17.01
2023-01-21T17:46:54.369Z,17.00
2023-01-21T17:51:20.452Z,17.08
2023-01-21T17:55:40.580Z,17.09
2023-01-21T17:59:58.458Z,17.16
2023-01-21T18:04:16.010Z,17.16
2023-01-21T18:08:33.764Z,17.10
2023-01-21T18:12:52.411Z,17.01
2023-01-21T18:17:20.987Z,16.95
2023-01-21T18:21:38.643Z,15.53
2023-01-21T18:25:56.680Z,15.83
2023-01-21T18:30:19.260Z,16.66
2023-01-21T18:34:36.943Z,16.93
2023-01-21T18:38:55.112Z,17.01
2023-01-21T18:43:12.978Z,17.16
2023-01-21T18:47:30.725Z,17.08
2023-01-21T18:51:48.434Z,17.15
2023-01-21T18:56:11.734Z,17.03
2023-01-21T19:00:33.555Z,17.12
2023-01-21T19:04:52.553Z,17.20
2023-01-21T19:09:24.414Z,17.11
2023-01-21T19:13:42.131Z,16.10
2023-01-21T19:18:00.149Z,15.16
2023-01-21T19:22:18.269Z,16.37
2023-01-21T19:26:37.507Z,16.81
2023-01-21T19:30:55.728Z,16.86
2023-01-21T19:35:19.151Z,17.06
2023-01-21T19:39:36.748Z,17.06
2023-01-21T19:43:54.522Z,17.10
2023-01-21T19:48:15.016Z,17.12
2023-01-21T19:52:38.402Z,17.01
2023-01-21T19:56:56.309Z,17.02
2023-01-21T20:01:13.944Z,17.10
2023-01-21T20:05:35.725Z,17.02
2023-01-21T20:09:53.251Z,16.61
2023-01-21T20:14:11.611Z,15.41
2023-01-21T20:18:31.252Z,15.92
2023-01-21T20:22:48.927Z,16.66
2023-01-21T20:27:09.548Z,16.77
2023-01-21T20:31:29.562Z,16.88
2023-01-21T20:35:53.416Z,16.95
2023-01-21T20:40:29.159Z,16.99
2023-01-21T20:44:46.835Z,16.91
2023-01-21T20:49:04.402Z,16.95
2023-01-21T20:53:22.025Z,16.92
2023-01-21T20:57:40.188Z,17.07
2023-01-21T21:01:57.803Z,17.04
2023-01-21T21:06:22.116Z,17.02
2023-01-21T21:10:39.751Z,16.98
2023-01-21T21:14:57.208Z,16.93
2023-01-21T21:19:14.807Z,17.09
2023-01-21T21:23:32.455Z,17.00
2023-01-21T21:27:50.414Z,15.84
2023-01-21T21:32:14.132Z,15.10
2023-01-21T21:36:31.713Z,16.21
2023-01-21T21:40:53.361Z,16.75
2023-01-21T21:45:11.273Z,16.81
2023-01-21T21:49:29.505Z,16.90
2023-01-21T21:53:47.292Z,16.86
2023-01-21T21:59:20.639Z,16.89
2023-01-21T22:03:58.278Z,16.93
2023-01-21T22:08:16.521Z,17.02
2023-01-21T22:12:34.099Z,16.99
2023-01-21T22:16:52.213Z,16.99
2023-01-21T22:21:18.300Z,16.96
2023-01-21T22:25:36.267Z,17.01
2023-01-21T22:29:53.798Z,17.07
2023-01-21T22:34:11.899Z,16.96
2023-01-21T22:38:29.641Z,16.94
2023-01-21T22:42:47.252Z,16.95
2023-01-21T22:47:04.943Z,16.98
2023-01-21T22:51:23.682Z,17.01
2023-01-21T22:55:41.649Z,16.28
2023-01-21T23:00:01.019Z,15.23
2023-01-21T23:04:23.485Z,15.71
2023-01-21T23:08:41.103Z,16.47
2023-01-21T23:12:58.814Z,16.71
2023-01-21T23:17:18.971Z,16.72
2023-01-21T23:21:39.036Z,16.84
2023-01-21T23:25:56.672Z,16.98
2023-01-21T23:30:15.343Z,16.87
2023-01-21T23:34:33.094Z,16.88
2023-01-21T23:38:50.795Z,16.93
2023-01-21T23:43:08.290Z,16.94
2023-01-21T23:47:26.066Z,16.94
2023-01-21T23:51:44.016Z,17.12
2023-01-21T23:56:25.462Z,16.98
